Time;durP1;ratioP1;P1;durP2;ratioP2;P2;SDS_P1;SDS_P2;PMS_P1;PMS_P2;Temp;Humidity;BMP_temperature;BMP_pressure;BME280_temperature;BME280_humidity;BME280_pressure;Samples;Min_cycle;Max_cycle;Signal;HPM_P1;HPM_P2
2023/06/30 00:01:48;;;;;;;5.90;3.60;;;;;;;25.27;44.20;100028.09;5032076;28;20056;-66
2023/06/30 00:04:17;;;;;;;6.97;3.40;;;;;;;25.27;44.21;100024.53;5031788;28;20054;-66
2023/06/30 00:06:49;;;;;;;7.38;3.63;;;;;;;25.25;44.48;100027.44;5031889;28;20072;-66
2023/06/30 00:09:18;;;;;;;5.18;3.33;;;;;;;25.24;44.73;100033.09;5031759;28;20514;-66
2023/06/30 00:11:50;;;;;;;6.50;3.67;;;;;;;25.23;44.57;100023.22;5031629;28;20045;-66
2023/06/30 00:14:19;;;;;;;7.20;3.40;;;;;;;25.22;44.48;100018.81;5031661;28;20052;-65
2023/06/30 00:16:47;;;;;;;6.45;3.78;;;;;;;25.20;44.66;100024.47;5031632;28;20049;-66
2023/06/30 00:19:15;;;;;;;6.57;3.58;;;;;;;25.20;44.84;100026.34;5031530;28;20056;-66
2023/06/30 00:21:44;;;;;;;6.05;3.38;;;;;;;25.18;44.71;100022.94;5031885;28;20053;-65
2023/06/30 00:24:13;;;;;;;6.78;4.00;;;;;;;25.16;44.64;100020.41;5031744;28;20045;-66
2023/06/30 00:26:41;;;;;;;5.43;3.50;;;;;;;25.15;44.67;100010.53;5031702;28;20048;-66
2023/06/30 00:29:11;;;;;;;5.40;3.50;;;;;;;25.14;44.89;100019.78;5031462;28;20054;-66
2023/06/30 00:31:39;;;;;;;5.78;3.72;;;;;;;25.13;44.81;100011.78;5031286;28;20107;-65
2023/06/30 00:34:07;;;;;;;6.05;3.72;;;;;;;25.11;44.69;100021.00;5031567;28;20192;-66
2023/06/30 00:36:36;;;;;;;5.10;3.60;;;;;;;25.11;44.87;100017.44;5031411;28;20490;-65
2023/06/30 00:39:04;;;;;;;5.53;3.60;;;;;;;25.11;45.02;100020.16;5031397;28;20081;-66
2023/06/30 00:41:32;;;;;;;5.43;3.80;;;;;;;25.08;44.75;100015.91;5031346;28;20041;-66
2023/06/30 00:44:01;;;;;;;6.20;3.60;;;;;;;25.06;44.83;100012.53;5031293;28;20045;-66
2023/06/30 00:46:31;;;;;;;7.00;3.88;;;;;;;25.04;45.05;100014.63;5031124;28;20045;-66
2023/06/30 00:48:59;;;;;;;7.03;3.80;;;;;;;25.04;45.07;100009.16;5031192;28;20053;-66
2023/06/30 00:51:27;;;;;;;5.75;3.75;;;;;;;25.03;45.00;100012.09;5031040;28;20058;-66
2023/06/30 00:53:56;;;;;;;6.45;3.83;;;;;;;25.00;45.42;100007.84;5031321;28;20050;-66
2023/06/30 00:56:24;;;;;;;5.40;3.80;;;;;;;25.00;45.18;100007.84;5031257;28;20049;-66
2023/06/30 00:58:52;;;;;;;6.05;4.10;;;;;;;24.98;45.36;100009.88;5031071;28;20517;-65
2023/06/30 01:01:30;;;;;;;6.90;4.28;;;;;;;24.97;45.43;100008.19;5031304;28;20049;-66
2023/06/30 01:04:08;;;;;;;6.07;3.80;;;;;;;24.96;45.42;100006.50;5031202;28;20099;-65
2023/06/30 01:06:43;;;;;;;6.18;3.63;;;;;;;24.96;45.43;100011.13;5031091;28;20049;-66
2023/06/30 01:09:16;;;;;;;6.32;4.03;;;;;;;24.95;45.25;100007.56;5030944;28;20045;-65
2023/06/30 01:11:44;;;;;;;;;;;;;;;24.93;45.39;99998.72;5033711;28;20103;-66
2023/06/30 01:14:16;;;;;;;5.85;3.70;;;;;;;24.93;45.30;100000.59;5035268;28;20011;-65
2023/06/30 01:16:46;;;;;;;5.65;4.18;;;;;;;24.91;45.44;99995.34;5035135;28;20053;-65
2023/06/30 01:19:26;;;;;;;6.18;4.03;;;;;;;24.92;45.43;99996.19;5034934;28;20461;-66
2023/06/30 01:21:56;;;;;;;5.32;3.80;;;;;;;24.90;45.41;100001.84;5034831;28;20057;-66
2023/06/30 01:24:27;;;;;;;6.40;4.05;;;;;;;24.89;45.34;100000.13;5035003;28;20049;-65
2023/06/30 01:26:56;;;;;;;7.80;4.03;;;;;;;24.89;45.42;99994.66;5035020;28;20084;-65
2023/06/30 01:29:24;;;;;;;6.72;4.10;;;;;;;24.87;45.32;99999.47;5034910;28;20046;-65
2023/06/30 01:31:52;;;;;;;5.93;4.00;;;;;;;24.86;45.69;99996.94;5035274;28;20053;-64
2023/06/30 01:34:22;;;;;;;6.85;3.90;;;;;;;24.82;45.65;99999.22;5034723;28;20100;-64
2023/06/30 01:36:51;;;;;;;6.13;4.00;;;;;;;24.80;45.60;99995.81;5035033;28;20054;-64
2023/06/30 01:39:19;;;;;;;6.20;3.63;;;;;;;24.79;45.44;99999.56;5034617;28;20045;-64
2023/06/30 01:41:47;;;;;;;6.57;3.80;;;;;;;24.78;45.37;99996.00;5034737;28;20383;-66
2023/06/30 01:44:15;;;;;;;6.78;3.78;;;;;;;24.77;45.54;99990.75;5034416;28;20139;-64
2023/06/30 01:46:44;;;;;;;7.38;3.70;;;;;;;24.75;45.65;99996.38;5034464;28;20045;-64
2023/06/30 01:49:13;;;;;;;6.97;3.95;;;;;;;24.74;45.75;99991.13;5034285;28;20050;-64
2023/06/30 01:51:43;;;;;;;6.00;3.78;;;;;;;24.73;45.70;99983.97;5034016;28;20145;-65
2023/06/30 01:54:11;;;;;;;6.82;4.03;;;;;;;24.72;45.59;99987.75;5033072;28;20128;-65
2023/06/30 01:56:47;;;;;;;5.45;3.60;;;;;;;24.70;45.88;99985.19;5033160;28;20103;-63
2023/06/30 01:59:16;;;;;;;5.60;3.70;;;;;;;24.68;46.07;99986.44;5032896;28;20486;-66
2023/06/30 02:01:44;;;;;;;5.75;3.55;;;;;;;24.67;45.89;99982.84;5033100;28;20105;-65
2023/06/30 02:04:15;;;;;;;5.25;3.72;;;;;;;24.66;45.94;99989.34;5032942;28;20501;-65
2023/06/30 02:06:44;;;;;;;5.88;3.78;;;;;;;24.64;46.06;99985.97;5032758;28;20053;-65
2023/06/30 02:09:13;;;;;;;5.50;3.70;;;;;;;24.64;45.87;99985.13;5032882;28;20136;-65
2023/06/30 02:11:41;;;;;;;6.78;3.72;;;;;;;24.63;45.86;99980.72;5032789;28;20056;-67
2023/06/30 02:14:09;;;;;;;5.38;3.30;;;;;;;24.62;45.91;99984.47;5032538;28;20402;-66
2023/06/30 02:16:37;;;;;;;4.80;3.38;;;;;;;24.61;46.05;99982.75;5032941;28;20064;-65
2023/06/30 02:19:06;;;;;;;5.72;3.70;;;;;;;24.60;46.26;99986.53;5032735;28;20053;-63
2023/06/30 02:21:34;;;;;;;6.00;3.50;;;;;;;24.57;46.20;99987.75;5032352;28;20045;-66
2023/06/30 02:24:03;;;;;;;5.30;3.67;;;;;;;24.58;46.22;99984.00;5032570;28;20410;-64
2023/06/30 02:26:32;;;;;;;5.63;3.53;;;;;;;24.58;46.25;99977.69;5032551;28;20053;-64
2023/06/30 02:29:00;;;;;;;5.03;3.38;;;;;;;24.56;46.04;99975.16;5032670;28;20121;-64
2023/06/30 02:31:28;;;;;;;5.05;3.40;;;;;;;24.56;45.94;99977.88;5032751;28;20045;-66
2023/06/30 02:33:56;;;;;;;5.28;3.47;;;;;;;24.55;46.25;99978.91;5032453;28;20049;-65
2023/06/30 02:36:25;;;;;;;5.85;3.80;;;;;;;24.55;46.19;99982.50;5032516;28;20046;-65
2023/06/30 02:38:53;;;;;;;6.07;3.78;;;;;;;24.54;46.21;99972.63;5032421;28;20045;-64
2023/06/30 02:41:23;;;;;;;5.30;3.85;;;;;;;24.52;46.30;99977.44;5032227;28;20049;-65
2023/06/30 02:43:51;;;;;;;5.05;3.33;;;;;;;24.51;46.20;99974.88;5032579;28;20045;-63
2023/06/30 02:46:19;;;;;;;5.28;3.47;;;;;;;24.50;46.33;99974.03;5032404;28;20103;-64
2023/06/30 02:48:47;;;;;;;5.43;3.80;;;;;;;24.49;46.21;99969.59;5032346;28;20414;-65
2023/06/30 02:51:16;;;;;;;5.28;3.53;;;;;;;24.48;46.29;99976.09;4992764;28;1137390;-65
2023/06/30 02:53:44;;;;;;;7.22;3.70;;;;;;;24.47;46.37;99971.69;5033182;28;20088;-65
2023/06/30 02:56:12;;;;;;;6.60;3.63;;;;;;;24.47;46.51;99973.56;5033478;28;20049;-65
2023/06/30 02:58:41;;;;;;;5.43;3.90;;;;;;;24.45;46.50;99971.03;5033247;28;20041;-65
2023/06/30 03:01:09;;;;;;;5.75;3.35;;;;;;;24.45;46.38;99975.63;5033222;28;20513;-65
2023/06/30 03:03:39;;;;;;;6.78;3.97;;;;;;;24.43;46.27;99970.38;5033122;28;20145;-65
2023/06/30 03:06:07;;;;;;;5.80;3.83;;;;;;;24.42;46.32;99974.16;5033171;28;20414;-65
2023/06/30 03:08:35;;;;;;;8.48;4.05;;;;;;;24.41;46.45;99975.16;5033018;28;20053;-65
2023/06/30 03:11:04;;;;;;;5.05;3.50;;;;;;;24.41;46.32;99975.16;5032987;28;20059;-65
2023/06/30 03:13:32;;;;;;;5.38;3.65;;;;;;;24.39;46.46;99977.22;5032864;28;20049;-66
2023/06/30 03:16:01;;;;;;;7.53;3.50;;;;;;;24.37;46.36;99976.56;5033118;28;20412;-65
2023/06/30 03:18:30;;;;;;;6.45;3.80;;;;;;;24.37;46.76;99973.84;5032911;28;20585;-65
2023/06/30 03:20:58;;;;;;;6.05;3.63;;;;;;;24.37;46.39;99971.13;5032669;28;20125;-65
2023/06/30 03:23:26;;;;;;;7.55;3.58;;;;;;;24.36;46.50;99972.16;5032951;28;20049;-65
2023/06/30 03:25:54;;;;;;;5.70;3.45;;;;;;;24.36;46.44;99966.72;5032640;28;20046;-65
2023/06/30 03:28:22;;;;;;;7.28;3.80;;;;;;;24.34;46.68;99968.78;5032725;28;20038;-64
2023/06/30 03:30:50;;;;;;;5.90;3.30;;;;;;;24.34;46.68;99974.25;5032517;28;20509;-64
2023/06/30 03:33:21;;;;;;;6.38;3.90;;;;;;;24.34;46.56;99976.13;5031750;28;20053;-64
2023/06/30 03:35:51;;;;;;;5.60;3.72;;;;;;;24.31;46.60;99974.59;5032900;28;20049;-64
2023/06/30 03:38:19;;;;;;;5.75;3.72;;;;;;;24.31;46.74;99976.44;5032378;28;20054;-65
2023/06/30 03:40:47;;;;;;;5.57;3.63;;;;;;;24.30;46.72;99972.03;5032575;28;20045;-65
2023/06/30 03:43:15;;;;;;;5.32;3.53;;;;;;;24.30;46.79;99969.31;5032286;28;20052;-64
2023/06/30 03:45:43;;;;;;;5.38;3.70;;;;;;;24.29;46.72;99965.72;5032271;28;20128;-64
2023/06/30 03:48:12;;;;;;;6.65;3.67;;;;;;;24.27;46.61;99963.19;5032341;28;20049;-64
2023/06/30 03:50:42;;;;;;;6.72;3.88;;;;;;;24.27;46.81;99962.34;5032364;28;20053;-63
2023/06/30 03:53:10;;;;;;;4.70;3.40;;;;;;;24.27;46.81;99956.91;5031882;28;20136;-65
2023/06/30 03:55:38;;;;;;;6.68;3.50;;;;;;;24.27;46.87;99967.81;5032245;28;20441;-64
2023/06/30 03:58:06;;;;;;;6.85;3.92;;;;;;;24.25;46.91;99965.28;5031821;28;20463;-64
2023/06/30 04:00:34;;;;;;;7.82;4.25;;;;;;;24.24;46.89;99960.00;5031804;28;20427;-64
2023/06/30 04:03:02;;;;;;;5.68;3.88;;;;;;;24.24;46.91;99970.91;5032059;28;20548;-65
2023/06/30 04:05:31;;;;;;;5.28;3.90;;;;;;;24.23;46.93;99966.50;5032082;28;20136;-66
2023/06/30 04:08:00;;;;;;;6.82;3.92;;;;;;;24.22;47.03;99962.06;5031855;28;20045;-64
2023/06/30 04:10:28;;;;;;;5.90;3.35;;;;;;;24.21;47.01;99971.25;5031801;28;20052;-65
2023/06/30 04:12:56;;;;;;;5.78;3.53;;;;;;;24.21;46.98;99974.00;5032108;28;20053;-65
2023/06/30 04:15:25;;;;;;;6.63;3.60;;;;;;;24.20;47.12;99955.94;5031910;28;20064;-65
2023/06/30 04:17:53;;;;;;;6.47;3.80;;;;;;;24.19;47.13;99966.00;5031487;28;20137;-65
2023/06/30 04:20:21;;;;;;;6.95;3.92;;;;;;;24.20;47.11;99966.84;5031595;28;20513;-64
2023/06/30 04:22:50;;;;;;;5.82;4.05;;;;;;;24.19;47.12;99970.63;5031812;28;20434;-65
2023/06/30 04:25:19;;;;;;;6.95;3.58;;;;;;;24.18;47.14;99974.38;5031597;28;20080;-63
2023/06/30 04:27:48;;;;;;;6.55;3.92;;;;;;;24.18;47.19;99975.22;5011884;28;20062;-66
2023/06/30 04:30:16;;;;;;;5.18;3.63;;;;;;;24.18;46.95;99966.19;5011515;28;20457;-64
2023/06/30 04:32:44;;;;;;;5.80;3.90;;;;;;;24.18;47.22;99977.09;5011738;28;20100;-64
2023/06/30 04:35:12;;;;;;;6.95;3.80;;;;;;;24.17;47.34;99969.97;5011633;28;20108;-64
2023/06/30 04:37:41;;;;;;;7.80;4.00;;;;;;;24.17;47.15;99968.09;5012004;28;20129;-64
2023/06/30 04:40:09;;;;;;;6.30;3.97;;;;;;;24.17;47.27;99967.22;5011791;28;20058;-64
2023/06/30 04:42:39;;;;;;;7.03;3.97;;;;;;;24.17;47.23;99962.63;5011447;28;20050;-65
2023/06/30 04:45:07;;;;;;;7.85;4.32;;;;;;;24.16;47.25;99965.53;5011291;28;20085;-64
2023/06/30 04:47:36;;;;;;;5.60;3.65;;;;;;;24.16;47.22;99957.38;5011570;28;20056;-64
2023/06/30 04:50:05;;;;;;;5.57;4.10;;;;;;;24.16;47.24;99962.81;5011690;28;20407;-65
2023/06/30 04:52:33;;;;;;;5.55;3.35;;;;;;;24.16;47.03;99954.66;5011176;28;20520;-64
2023/06/30 04:55:02;;;;;;;6.47;4.05;;;;;;;24.17;47.25;99948.16;5011375;28;20064;-65
2023/06/30 04:57:30;;;;;;;6.32;3.80;;;;;;;24.16;47.30;99952.78;5011296;28;20045;-64
2023/06/30 05:00:00;;;;;;;10.40;4.40;;;;;;;24.17;47.42;99950.88;5011773;28;20053;-65
2023/06/30 05:02:29;;;;;;;7.00;4.35;;;;;;;24.16;47.39;99949.19;5011469;28;20478;-66
2023/06/30 05:04:57;;;;;;;6.25;4.00;;;;;;;24.16;47.41;99943.75;5011239;28;20057;-67
2023/06/30 05:07:26;;;;;;;5.60;4.07;;;;;;;24.16;47.27;99941.03;5011319;28;20042;-65
2023/06/30 05:09:54;;;;;;;6.40;4.15;;;;;;;24.16;47.43;99949.19;5011083;28;20129;-67
2023/06/30 05:12:22;;;;;;;6.57;4.47;;;;;;;24.17;47.42;99945.44;5011423;28;20124;-66
2023/06/30 05:14:51;;;;;;;6.05;4.20;;;;;;;24.16;47.48;99944.59;5011238;28;20112;-66
2023/06/30 05:17:20;;;;;;;6.40;4.15;;;;;;;24.16;47.51;99946.47;5011135;28;20383;-65
2023/06/30 05:19:49;;;;;;;5.47;4.03;;;;;;;24.16;47.54;99954.66;5010890;28;20396;-65
2023/06/30 05:22:17;;;;;;;6.55;4.30;;;;;;;24.15;47.55;99948.34;5011044;28;20041;-65
2023/06/30 05:24:45;;;;;;;6.68;3.95;;;;;;;24.15;47.64;99945.63;5011287;28;20140;-65
2023/06/30 05:27:14;;;;;;;7.53;4.20;;;;;;;24.16;47.75;99944.59;5023096;28;20383;-65
2023/06/30 05:29:42;;;;;;;6.53;4.30;;;;;;;24.17;47.68;99945.44;5013027;28;20043;-66
2023/06/30 05:32:10;;;;;;;6.25;4.10;;;;;;;24.16;47.66;99950.03;5030906;28;20100;-65
2023/06/30 05:34:42;;;;;;;6.43;4.22;;;;;;;24.16;47.64;99943.75;5030726;28;20052;-66
2023/06/30 05:37:10;;;;;;;9.27;4.30;;;;;;;24.15;47.72;99942.91;5030551;28;20080;-65
2023/06/30 05:39:38;;;;;;;7.38;4.45;;;;;;;24.15;47.73;99942.91;5030353;28;20125;-65
2023/06/30 05:42:07;;;;;;;6.93;4.13;;;;;;;24.16;47.78;99949.19;5030227;28;20544;-65
2023/06/30 05:44:35;;;;;;;6.88;4.00;;;;;;;24.16;47.78;99949.19;5030451;28;20052;-65
2023/06/30 05:47:04;;;;;;;7.13;4.63;;;;;;;24.16;47.76;99949.19;5027865;28;20096;-66
2023/06/30 05:49:41;;;;;;;6.18;3.75;;;;;;;24.17;47.48;99950.88;5028480;28;20045;-65
2023/06/30 05:52:10;;;;;;;6.57;4.00;;;;;;;24.17;47.91;99953.63;5029630;28;20459;-65
2023/06/30 05:54:38;;;;;;;8.90;4.75;;;;;;;24.17;47.84;99957.19;5027967;28;20049;-67
2023/06/30 05:57:06;;;;;;;6.95;4.47;;;;;;;24.18;47.85;99952.56;5031358;28;20140;-66
2023/06/30 05:59:34;;;;;;;6.47;4.40;;;;;;;24.18;48.09;99963.47;5033796;28;20045;-65
2023/06/30 06:02:02;;;;;;;7.32;4.53;;;;;;;24.18;47.89;99958.03;5034007;28;20157;-67
2023/06/30 06:04:30;;;;;;;6.22;4.10;;;;;;;24.17;47.97;99950.88;5034320;28;20428;-66
2023/06/30 06:07:03;;;;;;;6.00;4.05;;;;;;;24.18;47.87;99958.88;5034103;28;20395;-66
2023/06/30 06:09:31;;;;;;;6.45;4.25;;;;;;;24.18;47.97;99958.03;5033925;28;20045;-66
2023/06/30 06:12:02;;;;;;;7.50;4.65;;;;;;;24.19;47.84;99957.00;5034089;28;20135;-66
2023/06/30 06:14:30;;;;;;;7.57;5.07;;;;;;;24.19;47.96;99954.25;5033720;28;20052;-66
2023/06/30 06:16:59;;;;;;;8.93;4.63;;;;;;;24.19;47.95;99959.72;5033913;28;20081;-66
2023/06/30 06:19:27;;;;;;;7.70;4.43;;;;;;;24.19;48.09;99957.84;5034032;28;20042;-67
2023/06/30 06:21:55;;;;;;;8.45;5.03;;;;;;;24.19;48.11;99954.25;5033688;28;20052;-66
2023/06/30 06:24:24;;;;;;;6.47;4.32;;;;;;;24.19;48.01;99960.56;5033993;28;20045;-65
2023/06/30 06:26:53;;;;;;;8.55;4.40;;;;;;;24.20;48.08;99955.94;5033463;28;20053;-65
2023/06/30 06:29:22;;;;;;;9.25;4.70;;;;;;;24.20;47.99;99954.06;5033185;28;20050;-67
2023/06/30 06:31:51;;;;;;;7.95;4.45;;;;;;;24.20;48.05;99947.78;5033791;28;20046;-66
2023/06/30 06:34:20;;;;;;;7.78;4.57;;;;;;;24.22;47.89;99953.88;5033640;28;20072;-66
2023/06/30 06:36:48;;;;;;;7.15;4.18;;;;;;;24.23;47.93;99953.72;5033732;28;20096;-66
2023/06/30 06:39:18;;;;;;;6.63;4.30;;;;;;;24.24;47.86;99949.13;5033550;28;20046;-67
2023/06/30 06:41:48;;;;;;;6.32;4.10;;;;;;;24.25;47.66;99948.91;5033387;28;20136;-67
2023/06/30 06:44:17;;;;;;;9.43;4.28;;;;;;;24.26;47.85;99936.13;5033379;28;20050;-67
2023/06/30 06:46:45;;;;;;;7.38;4.15;;;;;;;24.26;47.84;99942.44;5033432;28;20053;-66
2023/06/30 06:49:14;;;;;;;5.85;4.00;;;;;;;24.27;47.73;99940.56;5033268;28;20042;-66
2023/06/30 06:51:42;;;;;;;6.70;3.95;;;;;;;24.26;47.87;99939.72;5013411;28;20050;-66
2023/06/30 06:54:10;;;;;;;7.80;4.10;;;;;;;24.27;47.79;99941.41;5027554;28;20052;-67
2023/06/30 06:56:38;;;;;;;9.95;4.13;;;;;;;24.28;47.58;99931.34;5030889;28;20045;-66
2023/06/30 06:59:08;;;;;;;7.82;3.72;;;;;;;24.27;47.64;99933.22;5030563;28;20059;-69
2023/06/30 07:01:36;;;;;;;9.65;4.10;;;;;;;24.27;47.58;99938.66;5033134;28;20041;-68
2023/06/30 07:04:04;;;;;;;5.65;3.90;;;;;;;24.29;47.40;99935.75;5032846;28;20042;-66
2023/06/30 07:06:32;;;;;;;6.30;3.80;;;;;;;24.28;47.49;99937.63;5032676;28;20045;-66
2023/06/30 07:09:01;;;;;;;7.93;3.90;;;;;;;24.28;47.47;99940.34;5029938;28;20056;-66
2023/06/30 07:11:29;;;;;;;7.90;3.83;;;;;;;24.28;47.47;99937.63;5032841;28;20049;-66
2023/06/30 07:13:57;;;;;;;8.18;3.67;;;;;;;24.30;47.45;99934.72;5032946;28;20060;-66
2023/06/30 07:16:26;;;;;;;8.60;3.65;;;;;;;24.30;47.56;99934.72;5032692;28;20057;-66
2023/06/30 07:18:54;;;;;;;8.63;3.65;;;;;;;24.31;47.47;99947.34;5032780;28;20077;-66
2023/06/30 07:21:25;;;;;;;9.13;3.75;;;;;;;24.30;47.39;99937.44;5032523;28;20045;-66
2023/06/30 07:23:54;;;;;;;8.45;3.65;;;;;;;24.31;47.61;99946.47;5032574;28;20049;-65
2023/06/30 07:26:22;;;;;;;6.72;3.53;;;;;;;24.31;47.54;99935.56;5032460;28;20049;-66
2023/06/30 07:28:50;;;;;;;6.40;3.25;;;;;;;24.31;47.45;99933.72;5032587;28;20045;-65
2023/06/30 07:31:18;;;;;;;8.35;3.47;;;;;;;24.32;47.63;99932.69;5032358;28;20540;-66
2023/06/30 07:33:48;;;;;;;6.68;3.58;;;;;;;24.33;47.54;99928.94;5032230;28;20041;-65
2023/06/30 07:36:16;;;;;;;7.00;3.22;;;;;;;24.33;47.49;99928.94;5032206;28;20053;-65
2023/06/30 07:38:44;;;;;;;6.10;3.45;;;;;;;24.34;47.27;99925.19;5032264;28;20482;-65
2023/06/30 07:41:12;;;;;;;4.82;3.22;;;;;;;24.34;47.39;99927.91;5032469;28;20073;-67
2023/06/30 07:43:41;;;;;;;5.63;3.20;;;;;;;24.34;47.17;99925.19;5032280;28;20124;-65
2023/06/30 07:46:09;;;;;;;7.25;3.28;;;;;;;24.35;46.83;99915.97;5031943;28;20052;-66
2023/06/30 07:48:37;;;;;;;7.28;3.20;;;;;;;24.35;46.88;99929.59;5031647;28;20406;-66
2023/06/30 07:51:07;;;;;;;7.90;3.45;;;;;;;24.37;46.93;99924.78;5031547;28;20049;-65
2023/06/30 07:53:38;;;;;;;4.70;2.90;;;;;;;24.37;47.07;99922.06;5031791;28;20337;-65
2023/06/30 07:56:06;;;;;;;5.55;3.00;;;;;;;24.38;46.94;99921.03;5032209;28;20053;-66
2023/06/30 07:58:34;;;;;;;6.63;3.05;;;;;;;24.38;46.53;99921.03;5031777;28;20509;-66
2023/06/30 08:01:02;;;;;;;6.88;3.10;;;;;;;24.39;46.42;99922.72;5031969;28;20128;-66
2023/06/30 08:03:31;;;;;;;5.50;2.88;;;;;;;24.39;46.14;99919.97;5032076;28;20076;-65
2023/06/30 08:05:59;;;;;;;4.55;2.70;;;;;;;24.39;45.97;99919.97;5031887;28;20100;-65
2023/06/30 08:08:30;;;;;;;4.43;2.55;;;;;;;24.41;45.80;99926.09;5031665;28;20140;-67
2023/06/30 08:10:59;;;;;;;5.05;2.55;;;;;;;24.41;45.59;99917.91;5031921;28;20390;-65
2023/06/30 08:13:27;;;;;;;5.30;2.50;;;;;;;24.41;45.78;99915.19;5031666;28;20049;-66
2023/06/30 08:15:55;;;;;;;3.97;2.50;;;;;;;24.42;45.46;99911.44;5031615;28;20053;-65
2023/06/30 08:18:24;;;;;;;8.15;3.00;;;;;;;24.43;45.69;99907.69;5031827;28;20045;-66
2023/06/30 08:21:01;;;;;;;5.63;2.60;;;;;;;24.44;45.19;99901.19;5031367;28;20132;-66
2023/06/30 08:23:30;;;;;;;6.15;2.53;;;;;;;24.45;44.96;99902.88;5031471;28;20045;-66
2023/06/30 08:25:59;;;;;;;6.45;2.88;;;;;;;24.45;45.08;99908.34;5031394;28;20049;-66
2023/06/30 08:28:27;;;;;;;4.63;2.58;;;;;;;24.46;45.19;99904.56;5031189;28;20491;-64
2023/06/30 08:30:55;;;;;;;4.05;2.67;;;;;;;24.47;45.12;99906.25;5031647;28;20402;-64
2023/06/30 08:33:28;;;;;;;4.40;2.50;;;;;;;24.48;45.20;99907.94;5031427;28;20274;-66
2023/06/30 08:36:02;;;;;;;4.22;2.28;;;;;;;24.49;44.99;99901.44;5031291;28;20057;-67
2023/06/30 08:38:31;;;;;;;4.68;2.33;;;;;;;24.49;45.10;99898.72;5031447;28;20056;-66
2023/06/30 08:41:02;;;;;;;4.28;2.50;;;;;;;24.50;44.76;99910.47;5031315;28;20053;-66
2023/06/30 08:43:32;;;;;;;4.40;2.88;;;;;;;24.51;44.90;99907.59;5031288;28;20494;-66
2023/06/30 08:46:02;;;;;;;5.13;2.60;;;;;;;24.52;44.75;99905.69;5031469;28;20067;-66
2023/06/30 08:48:31;;;;;;;5.05;2.50;;;;;;;24.54;44.59;99895.44;5031182;28;20053;-66
2023/06/30 08:51:00;;;;;;;5.53;2.50;;;;;;;24.54;44.80;99909.91;5031223;28;20052;-66
2023/06/30 08:53:29;;;;;;;4.60;2.50;;;;;;;24.57;44.49;99905.13;5030769;28;20050;-66
2023/06/30 08:55:59;;;;;;;4.15;2.45;;;;;;;24.57;44.39;99913.28;5031237;28;20063;-66
2023/06/30 08:58:28;;;;;;;4.65;2.38;;;;;;;24.59;44.18;99894.84;5031111;28;20498;-66
2023/06/30 09:00:56;;;;;;;5.78;2.60;;;;;;;24.58;44.32;99894.00;5031138;28;20473;-66
2023/06/30 09:03:25;;;;;;;5.57;2.30;;;;;;;24.59;44.40;99890.25;5030937;28;20081;-66
2023/06/30 09:05:55;;;;;;;4.93;2.60;;;;;;;24.61;44.38;99895.50;5030829;28;20046;-66
2023/06/30 09:08:27;;;;;;;4.43;2.30;;;;;;;24.62;44.51;99894.50;5031180;28;20107;-66
2023/06/30 09:10:56;;;;;;;3.65;2.38;;;;;;;24.62;44.28;99906.25;5031216;28;20052;-66
2023/06/30 09:13:27;;;;;;;6.40;2.58;;;;;;;24.63;44.07;99886.13;5031081;28;20061;-65
2023/06/30 09:15:59;;;;;;;5.32;2.40;;;;;;;24.65;43.85;99896.81;5030957;28;20391;-67
2023/06/30 09:18:27;;;;;;;5.25;2.30;;;;;;;24.66;44.04;99884.88;5030806;28;20372;-66
2023/06/30 09:20:55;;;;;;;4.03;2.10;;;;;;;24.67;44.32;99865.59;5031071;28;20124;-66
2023/06/30 09:23:25;;;;;;;3.65;2.20;;;;;;;24.69;44.18;99879.03;5030894;28;20046;-66
2023/06/30 09:25:53;;;;;;;4.35;2.30;;;;;;;24.71;43.86;99874.25;5030865;28;20045;-66
2023/06/30 09:28:21;;;;;;;3.63;2.35;;;;;;;24.71;43.90;99876.97;5030762;28;20056;-66
2023/06/30 09:30:51;;;;;;;4.93;2.30;;;;;;;24.73;44.03;99872.16;5030444;28;20046;-65
2023/06/30 09:33:20;;;;;;;6.30;2.70;;;;;;;24.75;43.76;99872.81;5033711;28;20469;-65
2023/06/30 09:35:50;;;;;;;4.28;2.28;;;;;;;24.76;43.68;99861.72;5034764;28;20049;-66
2023/06/30 09:38:19;;;;;;;5.35;2.50;;;;;;;24.78;43.78;99872.41;5034658;28;20112;-67
2023/06/30 09:40:49;;;;;;;3.72;2.25;;;;;;;24.79;43.84;99852.28;5034211;28;20128;-65
2023/06/30 09:43:18;;;;;;;4.28;2.30;;;;;;;24.80;44.00;99854.84;5034187;28;20048;-64
2023/06/30 09:45:48;;;;;;;4.70;2.30;;;;;;;24.81;43.72;99852.97;5034316;28;20054;-65
2023/06/30 09:48:18;;;;;;;4.05;2.15;;;;;;;24.82;43.71;99852.75;5034475;28;20127;-65
2023/06/30 09:50:47;;;;;;;3.80;2.05;;;;;;;24.85;43.23;99843.34;5034503;28;20054;-66
2023/06/30 09:53:20;;;;;;;4.00;2.22;;;;;;;24.86;43.30;99855.94;5033979;28;20053;-66
2023/06/30 09:55:49;;;;;;;4.75;2.10;;;;;;;24.88;43.43;99853.00;5034225;28;20052;-67
2023/06/30 09:58:18;;;;;;;3.88;2.13;;;;;;;24.89;43.56;99852.81;5033894;28;20054;-65
2023/06/30 10:00:48;;;;;;;4.38;2.08;;;;;;;24.91;42.91;99853.47;5034257;28;20067;-66
2023/06/30 10:03:18;;;;;;;4.00;2.28;;;;;;;24.91;43.30;99850.75;5034182;28;20050;-67
2023/06/30 10:05:49;;;;;;;3.75;2.20;;;;;;;24.93;43.13;99848.66;5034085;28;20041;-66
2023/06/30 10:08:17;;;;;;;4.85;2.40;;;;;;;24.95;42.75;99867.56;5033920;28;20477;-66
2023/06/30 10:10:46;;;;;;;5.07;2.25;;;;;;;24.97;42.73;99849.97;5033716;28;20042;-66
2023/06/30 10:13:16;;;;;;;4.30;2.40;;;;;;;24.99;42.74;99849.75;5033845;28;20509;-66
2023/06/30 10:15:45;;;;;;;4.75;2.05;;;;;;;25.01;42.59;99851.28;5033935;28;20091;-66
2023/06/30 10:18:16;;;;;;;3.92;2.00;;;;;;;25.03;42.52;99851.09;5033786;28;20145;-67
2023/06/30 10:20:46;;;;;;;3.92;2.10;;;;;;;25.06;42.41;99850.72;5033786;28;20045;-65
2023/06/30 10:23:19;;;;;;;4.28;2.22;;;;;;;25.08;42.41;99849.47;5033439;28;20050;-67
2023/06/30 10:25:49;;;;;;;3.58;1.92;;;;;;;25.10;42.28;99852.88;5033880;28;20087;-67
2023/06/30 10:28:19;;;;;;;3.58;1.90;;;;;;;25.11;42.07;99845.53;5034074;28;20419;-66
2023/06/30 10:30:51;;;;;;;4.53;2.00;;;;;;;25.14;42.13;99844.28;5033934;28;20049;-66
2023/06/30 10:33:19;;;;;;;3.08;2.10;;;;;;;25.15;42.18;99835.88;5033813;28;20461;-66
2023/06/30 10:35:50;;;;;;;4.50;2.17;;;;;;;25.17;42.23;99838.41;5033450;28;20049;-66
2023/06/30 10:38:19;;;;;;;3.08;1.90;;;;;;;25.19;42.31;99847.25;5033578;28;20049;-66
2023/06/30 10:40:47;;;;;;;3.67;2.20;;;;;;;25.20;42.50;99847.06;5033581;28;20056;-65
2023/06/30 10:43:15;;;;;;;3.55;2.00;;;;;;;25.23;41.80;99851.28;5032895;28;20140;-66
2023/06/30 10:46:07;;;;;;;2.58;1.73;;;;;;;25.26;41.79;99838.06;5033315;28;20057;-67
2023/06/30 10:48:41;;;;;;;3.63;2.03;;;;;;;25.29;41.85;99845.06;5033482;28;20132;-65
2023/06/30 10:51:13;;;;;;;3.75;2.00;;;;;;;25.32;41.56;99856.41;5033166;28;20112;-67
2023/06/30 10:53:44;;;;;;;6.47;2.10;;;;;;;25.35;41.13;99836.06;5033362;28;20049;-67
2023/06/30 10:56:12;;;;;;;5.35;2.20;;;;;;;25.39;41.25;99834.63;5033166;28;20045;-66
2023/06/30 10:58:43;;;;;;;3.97;2.10;;;;;;;25.43;40.89;99832.34;5032879;28;20096;-66
2023/06/30 11:01:14;;;;;;;4.38;1.90;;;;;;;25.45;41.09;99831.09;5032936;28;20050;-66
2023/06/30 11:04:11;;;;;;;4.15;2.13;;;;;;;25.49;40.82;99817.91;5033217;28;20077;-66
2023/06/30 11:06:47;;;;;;;3.55;2.13;;;;;;;25.51;40.72;99815.81;5033014;28;20386;-65
2023/06/30 11:09:15;;;;;;;4.60;2.28;;;;;;;25.53;40.76;99822.75;5032840;28;20056;-66
2023/06/30 11:11:50;;;;;;;3.95;2.20;;;;;;;25.57;41.12;99813.09;5033038;28;20117;-67
2023/06/30 11:14:32;;;;;;;4.15;2.20;;;;;;;25.61;40.91;99808.94;5036686;28;20085;-66
2023/06/30 11:17:03;;;;;;;3.78;2.47;;;;;;;25.65;41.23;99812.94;5034042;28;20049;-65
2023/06/30 11:19:31;;;;;;;4.65;2.47;;;;;;;25.71;41.17;99810.50;5032697;28;20128;-67
2023/06/30 11:22:26;;;;;;;4.30;2.45;;;;;;;25.75;41.25;99818.09;5032587;28;20088;-67
2023/06/30 11:24:55;;;;;;;4.57;2.30;;;;;;;25.78;41.08;99814.97;5032718;28;20129;-66
2023/06/30 11:27:23;;;;;;;3.25;2.20;;;;;;;25.83;40.97;99806.16;5032508;28;20045;-66
2023/06/30 11:29:55;;;;;;;3.25;2.10;;;;;;;25.86;41.04;99794.81;5032547;28;20096;-66
2023/06/30 11:32:26;;;;;;;6.40;2.77;;;;;;;25.89;40.96;99788.97;5032488;28;20050;-66
2023/06/30 11:34:56;;;;;;;3.83;2.20;;;;;;;25.92;41.11;99794.03;5032692;28;20045;-66
2023/06/30 11:37:26;;;;;;;4.45;2.65;;;;;;;25.95;40.92;99778.06;5032099;28;20475;-66
2023/06/30 11:39:56;;;;;;;6.43;2.33;;;;;;;25.99;40.73;99773.03;5032434;28;20391;-66
2023/06/30 11:42:24;;;;;;;3.50;2.10;;;;;;;26.02;40.88;99783.56;5032231;28;20072;-66